Darstellungsparameter: Aktuell verwendete Einstellungen:
Skalierung der Graphiken ... ?
xyx+y,   Skalierungsfaktor:      Skalierung: Modus: x, Faktor: 1
Darstellungszeitraum ... ?
Vom - - bis: - -   Zeitraum: 13.09.2020 - 13.10.2020
Min/Max/Avg-Anzeige ... ?
Zeige MMA aktuell
Zeige MMA Monat
Zeige MMA alles
Zeige --A aktuell
Zeige --A Monat
Zeige --A alles
Keine MMA-Anzeige
MMA:
Average (ber die Originaldaten)
MMA-Basis: 23.02.2003 - 30.09.2020
Quicknavigation für Darstellung... ?
Tage:      1T, 2T, 3T, 5T -1T -2T -3T -5T +1T +2T +3T +5T
Wochen: 1W, 2W, 3W -1W -2W -3W +1W +2W +3W
Monate: 1M, 3M, 6M -1M -3M -6M +1M +3M +6M
Jahre:    1J, 3J, 5J, 10J -1J -3J -5J -10J +1J +3J +5J +10J
Nutze für die Darstellung ... ?
Originaldaten oder ...
Mittelwerte Minima Maxima auf...
Stundenbasis Tagesbasis Wochenbasis
Monatsbasis Jahresbasis      Datenbasis: Mittelwerte auf Stundenbasis
Darstellen als:
Statistik (Auto) Statistik J:M      Darstellung:
Zur Graphik,    zurück zur Übersicht aller Sensoren.
 
Tabellarische Datenbersicht: ?
 
Sensor: Nr:Datum:Temp:Abs-Feuchte:Windchill:Wind:
Aussen-T/F 1 13-09-2020 00:00:00 14.36667 C 9.98 g/m*3 14.37 C 0.26667 km/h
2 13-09-2020 01:00:00 13.05 C 9.73 g/m*3 13.05 C 0.13333 km/h
3 13-09-2020 02:00:00 12.375 C 9.55 g/m*3 12.38 C 0.26667 km/h
4 13-09-2020 03:00:00 11.73333 C 9.42 g/m*3 11.73 C 0 km/h
5 13-09-2020 04:00:00 11.35 C 9.32 g/m*3 11.35 C 0 km/h
6 13-09-2020 05:00:00 10.84167 C 9.12 g/m*3 10.84 C 0 km/h
7 13-09-2020 06:00:00 10.35 C 8.92 g/m*3 10.35 C 0 km/h
8 13-09-2020 07:00:00 10.15 C 8.91 g/m*3 10.15 C 0 km/h
9 13-09-2020 08:00:00 10.66667 C 9.31 g/m*3 10.67 C 0.26667 km/h
10 13-09-2020 09:00:00 11.60833 C 9.88 g/m*3 11.61 C 0 km/h
11 13-09-2020 10:00:00 13.1 C 10.67 g/m*3 13.1 C 0 km/h
12 13-09-2020 11:00:00 15.53333 C 11.27 g/m*3 15.53 C 0.4 km/h
13 13-09-2020 12:00:00 19.05833 C 11.98 g/m*3 19.06 C 2.26667 km/h
14 13-09-2020 13:00:00 21.825 C 11.99 g/m*3 21.83 C 0.53333 km/h
15 13-09-2020 14:00:00 23.725 C 11.78 g/m*3 23.73 C 2.81667 km/h
16 13-09-2020 15:00:00 25.85833 C 11.17 g/m*3 25.86 C 4.14167 km/h
17 13-09-2020 16:00:00 26.83333 C 11.13 g/m*3 26.83 C 5.1 km/h
18 13-09-2020 17:00:00 28.81667 C 11.8 g/m*3 28.82 C 3.86667 km/h
19 13-09-2020 18:00:00 27.46667 C 13.01 g/m*3 27.47 C 2.66667 km/h
20 13-09-2020 19:00:00 23.69167 C 11.87 g/m*3 23.69 C 3.2 km/h
21 13-09-2020 20:00:00 20.53333 C 11.32 g/m*3 20.53 C 1.86667 km/h
22 13-09-2020 21:00:00 18.25 C 10.95 g/m*3 18.25 C 0 km/h
23 13-09-2020 22:00:00 16.55833 C 10.63 g/m*3 16.56 C 0 km/h
24 13-09-2020 23:00:00 15.175 C 10.44 g/m*3 15.18 C 0 km/h
25 14-09-2020 00:00:00 14.325 C 10.28 g/m*3 14.33 C 0 km/h
Sensor: Nr:Datum:Temp:Abs-Feuchte:Windchill:Wind:
Aussen-T/F 26 14-09-2020 01:00:00 13.59167 C 10.02 g/m*3 13.59 C 0 km/h
27 14-09-2020 02:00:00 12.875 C 9.83 g/m*3 12.88 C 0 km/h
28 14-09-2020 03:00:00 12.33333 C 9.69 g/m*3 12.33 C 0 km/h
29 14-09-2020 04:00:00 11.64167 C 9.45 g/m*3 11.64 C 0 km/h
30 14-09-2020 05:00:00 11.25833 C 9.33 g/m*3 11.26 C 0 km/h
31 14-09-2020 06:00:00 10.83333 C 9.15 g/m*3 10.83 C 0 km/h
32 14-09-2020 07:00:00 10.725 C 9.19 g/m*3 10.73 C 0 km/h
33 14-09-2020 08:00:00 11.15833 C 9.54 g/m*3 11.16 C 0 km/h
34 14-09-2020 09:00:00 12.125 C 10.2 g/m*3 12.13 C 0 km/h
35 14-09-2020 10:00:00 13.875 C 11.28 g/m*3 13.88 C 0 km/h
36 14-09-2020 11:00:00 17.325 C 12.59 g/m*3 17.33 C 0 km/h
37 14-09-2020 12:00:00 21.75833 C 13.7 g/m*3 21.76 C 1.075 km/h
38 14-09-2020 13:00:00 25.95833 C 13.95 g/m*3 25.96 C 3.33333 km/h
39 14-09-2020 14:00:00 28.11667 C 13.34 g/m*3 28.12 C 4.01667 km/h
40 14-09-2020 15:00:00 29.625 C 11.66 g/m*3 29.63 C 7.11667 km/h
41 14-09-2020 16:00:00 29.875 C 12.2 g/m*3 29.88 C 4.675 km/h
42 14-09-2020 17:00:00 29.775 C 14.18 g/m*3 29.78 C 1.46667 km/h
43 14-09-2020 18:00:00 30.61667 C 13.35 g/m*3 30.62 C 3.06667 km/h
44 14-09-2020 19:00:00 25.86667 C 11.8 g/m*3 25.87 C 7.39167 km/h
45 14-09-2020 20:00:00 22.39167 C 11.7 g/m*3 22.39 C 2.54167 km/h
46 14-09-2020 21:00:00 19.975 C 12.17 g/m*3 19.98 C 0 km/h
47 14-09-2020 22:00:00 18.525 C 11.98 g/m*3 18.52 C 0 km/h
48 14-09-2020 23:00:00 17.08333 C 11.72 g/m*3 17.08 C 0 km/h
49 15-09-2020 00:00:00 16.23333 C 11.47 g/m*3 16.23 C 0 km/h
50 15-09-2020 01:00:00 15.45833 C 11.28 g/m*3 15.46 C 0 km/h
Sensor: Nr:Datum:Temp:Abs-Feuchte:Windchill:Wind:
Aussen-T/F 51 15-09-2020 02:00:00 14.9 C 11.08 g/m*3 14.9 C 0 km/h
52 15-09-2020 03:00:00 14.15833 C 10.84 g/m*3 14.16 C 0 km/h
53 15-09-2020 04:00:00 13.54167 C 10.59 g/m*3 13.54 C 0 km/h
54 15-09-2020 05:00:00 13.10833 C 10.5 g/m*3 13.11 C 0 km/h
55 15-09-2020 06:00:00 12.50833 C 10.19 g/m*3 12.51 C 0 km/h
56 15-09-2020 07:00:00 12.2 C 10.11 g/m*3 12.2 C 0 km/h
57 15-09-2020 08:00:00 12.53333 C 10.43 g/m*3 12.53 C 0 km/h
58 15-09-2020 09:00:00 13.69167 C 11.29 g/m*3 13.69 C 0 km/h
59 15-09-2020 10:00:00 15.39167 C 12.46 g/m*3 15.39 C 0 km/h
60 15-09-2020 11:00:00 18.00833 C 13.23 g/m*3 18.01 C 0 km/h
61 15-09-2020 12:00:00 21.76667 C 14.25 g/m*3 21.77 C 0 km/h
62 15-09-2020 13:00:00 25.79167 C 13.96 g/m*3 25.79 C 1.6 km/h
63 15-09-2020 14:00:00 29.24167 C 12.37 g/m*3 29.24 C 4.13333 km/h
64 15-09-2020 15:00:00 30.65833 C 10.87 g/m*3 30.66 C 5.225 km/h
65 15-09-2020 16:00:00 31.5 C 9.92 g/m*3 31.5 C 4.93333 km/h
66 15-09-2020 17:00:00 33.19167 C 10.43 g/m*3 33.19 C 4.53333 km/h
67 15-09-2020 18:00:00 31.875 C 12.58 g/m*3 31.88 C 3.73333 km/h
68 15-09-2020 19:00:00 27.65833 C 11.92 g/m*3 27.66 C 3.33333 km/h
69 15-09-2020 20:00:00 24.3 C 11.82 g/m*3 24.3 C 4.4 km/h
70 15-09-2020 21:00:00 22.05833 C 12.2 g/m*3 22.06 C 0.13333 km/h
71 15-09-2020 22:00:00 20.48333 C 12.41 g/m*3 20.48 C 0 km/h
72 15-09-2020 23:00:00 18.90833 C 12.33 g/m*3 18.91 C 0 km/h
73 16-09-2020 00:00:00 18.13333 C 12.04 g/m*3 18.13 C 0 km/h
74 16-09-2020 01:00:00 17.29167 C 11.8 g/m*3 17.29 C 0 km/h
75 16-09-2020 02:00:00 16.225 C 11.64 g/m*3 16.23 C 0 km/h
Sensor: Nr:Datum:Temp:Abs-Feuchte:Windchill:Wind:
Aussen-T/F 76 16-09-2020 03:00:00 15.49167 C 11.43 g/m*3 15.49 C 0 km/h
77 16-09-2020 04:00:00 14.95 C 11.31 g/m*3 14.95 C 0 km/h
78 16-09-2020 05:00:00 14.5 C 11.19 g/m*3 14.5 C 0.4 km/h
79 16-09-2020 06:00:00 14.25833 C 11.14 g/m*3 14.26 C 0 km/h
80 16-09-2020 07:00:00 14.1 C 11.15 g/m*3 14.1 C 0.26667 km/h
81 16-09-2020 08:00:00 14.51667 C 11.45 g/m*3 14.52 C 0 km/h
82 16-09-2020 09:00:00 15.54167 C 12.13 g/m*3 15.54 C 0 km/h
83 16-09-2020 10:00:00 18.19167 C 13.13 g/m*3 18.19 C 0.26667 km/h
84 16-09-2020 11:00:00 20.775 C 13.49 g/m*3 20.78 C 0.13333 km/h
85 16-09-2020 12:00:00 23.24167 C 14 g/m*3 23.24 C 0 km/h
86 16-09-2020 13:00:00 24.46667 C 14.33 g/m*3 24.47 C 0.13333 km/h
87 16-09-2020 14:00:00 26.5 C 14.56 g/m*3 26.5 C 1.6 km/h
88 16-09-2020 15:00:00 28.38333 C 14.58 g/m*3 28.38 C 1.46667 km/h
89 16-09-2020 16:00:00 30.15 C 12.08 g/m*3 30.15 C 12.35833 km/h
90 16-09-2020 17:00:00 28.55833 C 14.56 g/m*3 28.56 C 13.96667 km/h
91 16-09-2020 18:00:00 26.775 C 15.19 g/m*3 26.78 C 13.56667 km/h
92 16-09-2020 19:00:00 25.28333 C 15.03 g/m*3 25.28 C 5.63333 km/h
93 16-09-2020 20:00:00 22.91667 C 14.49 g/m*3 22.92 C 2.53333 km/h
94 16-09-2020 21:00:00 22.29167 C 14.31 g/m*3 22.29 C 4.69167 km/h
95 16-09-2020 22:00:00 22.30833 C 14.01 g/m*3 22.31 C 7.66667 km/h
96 16-09-2020 23:00:00 21.24167 C 13.41 g/m*3 21.24 C 3.75 km/h
97 17-09-2020 00:00:00 20.75 C 13.12 g/m*3 20.75 C 8.05833 km/h
98 17-09-2020 01:00:00 20.09167 C 12.51 g/m*3 20.09 C 6.71667 km/h
99 17-09-2020 02:00:00 18.75 C 12.07 g/m*3 18.75 C 5.23333 km/h
100 17-09-2020 03:00:00 17.31667 C 11.82 g/m*3 17.32 C 2.8 km/h
Sensor: Nr:Datum:Temp:Abs-Feuchte:Windchill:Wind:
Aussen-T/F 101 17-09-2020 04:00:00 17.36667 C 11.98 g/m*3 17.37 C 8.74167 km/h
102 17-09-2020 05:00:00 17.125 C 11.71 g/m*3 17.13 C 7.375 km/h
103 17-09-2020 06:00:00 16.86667 C 11.44 g/m*3 16.87 C 6.15833 km/h
104 17-09-2020 07:00:00 16.63333 C 11.36 g/m*3 16.63 C 5.89167 km/h
105 17-09-2020 08:00:00 16.08333 C 10.89 g/m*3 16.08 C 9.425 km/h
106 17-09-2020 09:00:00 15.66667 C 10.46 g/m*3 15.67 C 8.06667 km/h
107 17-09-2020 10:00:00 16.05 C 9.52 g/m*3 16.05 C 6.71667 km/h
108 17-09-2020 11:00:00 16.4 C 9.11 g/m*3 16.4 C 10.48333 km/h
109 17-09-2020 12:00:00 17.575 C 9.16 g/m*3 17.58 C 12.76667 km/h
110 17-09-2020 13:00:00 18.81667 C 8.75 g/m*3 18.82 C 14.23333 km/h
111 17-09-2020 14:00:00 20.15833 C 7.94 g/m*3 20.16 C 13.29167 km/h
112 17-09-2020 15:00:00 20.91667 C 7.64 g/m*3 20.92 C 12.5 km/h
113 17-09-2020 16:00:00 21.61667 C 7.28 g/m*3 21.62 C 14.63333 km/h
114 17-09-2020 17:00:00 22.10833 C 7.36 g/m*3 22.11 C 15.3 km/h
115 17-09-2020 18:00:00 21.83333 C 7.63 g/m*3 21.83 C 10.33333 km/h
116 17-09-2020 19:00:00 19.575 C 8.01 g/m*3 19.58 C 2.40833 km/h
117 17-09-2020 20:00:00 15.91667 C 8.08 g/m*3 15.92 C 1.34167 km/h
118 17-09-2020 21:00:00 14.69167 C 8.1 g/m*3 14.69 C 1.6 km/h
119 17-09-2020 22:00:00 14.66667 C 8.24 g/m*3 14.67 C 2.00833 km/h
120 17-09-2020 23:00:00 13.575 C 8.15 g/m*3 13.58 C 1.475 km/h
121 18-09-2020 00:00:00 12.5 C 8.11 g/m*3 12.5 C 0.53333 km/h
122 18-09-2020 01:00:00 12.25833 C 8.1 g/m*3 12.26 C 2.41667 km/h
123 18-09-2020 02:00:00 12.55833 C 7.99 g/m*3 12.56 C 3.46667 km/h
124 18-09-2020 03:00:00 10.925 C 7.75 g/m*3 10.93 C 3.46667 km/h
125 18-09-2020 04:00:00 10.14167 C 7.61 g/m*3 10.14 C 4.13333 km/h
Sensor: Nr:Datum:Temp:Abs-Feuchte:Windchill:Wind:
Aussen-T/F 126 18-09-2020 05:00:00 9.55833 C 7.49 g/m*3 9.56 C 1.33333 km/h
127 18-09-2020 06:00:00 9.28333 C 7.45 g/m*3 9.28 C 0.53333 km/h
128 18-09-2020 07:00:00 9.18333 C 7.51 g/m*3 9.18 C 1.86667 km/h
129 18-09-2020 08:00:00 10.18333 C 7.93 g/m*3 10.18 C 0 km/h
130 18-09-2020 09:00:00 11.2 C 8.2 g/m*3 11.2 C 1.86667 km/h
131 18-09-2020 10:00:00 13.375 C 8.41 g/m*3 13.38 C 5.21667 km/h
132 18-09-2020 11:00:00 16.19167 C 8.82 g/m*3 16.19 C 8.33333 km/h
133 18-09-2020 12:00:00 18.7 C 9.38 g/m*3 18.7 C 8.6 km/h
134 18-09-2020 13:00:00 21.04167 C 10.18 g/m*3 21.04 C 12.36667 km/h
135 18-09-2020 14:00:00 22.58333 C 10.24 g/m*3 22.58 C 13.83333 km/h
136 18-09-2020 15:00:00 23.04167 C 9.98 g/m*3 23.04 C 13.83333 km/h
137 18-09-2020 16:00:00 23.66667 C 9.91 g/m*3 23.67 C 12.1 km/h
138 18-09-2020 17:00:00 24.73333 C 9.77 g/m*3 24.73 C 8.46667 km/h
139 18-09-2020 18:00:00 24.55 C 9.5 g/m*3 24.55 C 6.58333 km/h
140 18-09-2020 19:00:00 21.19167 C 9.55 g/m*3 21.19 C 4.40833 km/h
141 18-09-2020 20:00:00 16.91667 C 9.06 g/m*3 16.92 C 3.86667 km/h
142 18-09-2020 21:00:00 15.46667 C 8.63 g/m*3 15.47 C 5.06667 km/h
143 18-09-2020 22:00:00 14.61667 C 8.02 g/m*3 14.62 C 0.66667 km/h
144 18-09-2020 23:00:00 14.05833 C 7.91 g/m*3 14.06 C 2.8 km/h
145 19-09-2020 00:00:00 13.54167 C 7.74 g/m*3 13.54 C 2.53333 km/h
146 19-09-2020 01:00:00 12.625 C 7.61 g/m*3 12.63 C 4 km/h
147 19-09-2020 02:00:00 11.63333 C 7.47 g/m*3 11.63 C 1.6 km/h
148 19-09-2020 03:00:00 10.375 C 7.31 g/m*3 10.38 C 0.93333 km/h
149 19-09-2020 04:00:00 9.625 C 7.21 g/m*3 9.63 C 0 km/h
150 19-09-2020 05:00:00 8.825 C 7.08 g/m*3 8.82 C 0 km/h
Sensor: Nr:Datum:Temp:Abs-Feuchte:Windchill:Wind:
Aussen-T/F 151 19-09-2020 06:00:00 8.175 C 7.04 g/m*3 8.18 C 0 km/h
152 19-09-2020 07:00:00 7.68333 C 7.04 g/m*3 7.68 C 0 km/h
153 19-09-2020 08:00:00 7.94167 C 7.32 g/m*3 7.94 C 0 km/h
154 19-09-2020 09:00:00 8.91667 C 7.76 g/m*3 8.92 C 0 km/h
155 19-09-2020 10:00:00 11.41667 C 8.33 g/m*3 11.42 C 0.8 km/h
156 19-09-2020 11:00:00 15.09167 C 8.6 g/m*3 15.09 C 2.53333 km/h
157 19-09-2020 12:00:00 19.15 C 8.7 g/m*3 19.15 C 7.93333 km/h
158 19-09-2020 13:00:00 21.125 C 8.61 g/m*3 21.13 C 6.16667 km/h
159 19-09-2020 14:00:00 23.24167 C 8.63 g/m*3 23.24 C 8.46667 km/h
160 19-09-2020 15:00:00 24.33333 C 8.48 g/m*3 24.33 C 8.31667 km/h
161 19-09-2020 16:00:00 25.29167 C 8.19 g/m*3 25.29 C 9.41667 km/h
162 19-09-2020 17:00:00 26.2 C 8.17 g/m*3 26.2 C 8.34167 km/h
163 19-09-2020 18:00:00 26.39167 C 8.38 g/m*3 26.39 C 3.2 km/h
164 19-09-2020 19:00:00 21.7 C 8.12 g/m*3 21.7 C 2.13333 km/h
165 19-09-2020 20:00:00 17.99167 C 7.84 g/m*3 17.99 C 4.4 km/h
166 19-09-2020 21:00:00 16.35833 C 7.92 g/m*3 16.36 C 4.93333 km/h
167 19-09-2020 22:00:00 15.54167 C 8.16 g/m*3 15.54 C 1.86667 km/h
168 19-09-2020 23:00:00 14.425 C 8.17 g/m*3 14.43 C 0 km/h
169 20-09-2020 00:00:00 13.7 C 8.25 g/m*3 13.7 C 0.13333 km/h
170 20-09-2020 01:00:00 12.70833 C 8.27 g/m*3 12.71 C 0 km/h
171 20-09-2020 02:00:00 11.76667 C 7.98 g/m*3 11.77 C 0 km/h
172 20-09-2020 03:00:00 10.6 C 7.73 g/m*3 10.6 C 0 km/h
173 20-09-2020 04:00:00 9.84167 C 7.5 g/m*3 9.84 C 0 km/h
174 20-09-2020 05:00:00 9.49167 C 7.6 g/m*3 9.49 C 0 km/h
175 20-09-2020 06:00:00 8.96667 C 7.46 g/m*3 8.97 C 0 km/h
Sensor: Nr:Datum:Temp:Abs-Feuchte:Windchill:Wind:
Aussen-T/F 176 20-09-2020 07:00:00 8.3 C 7.32 g/m*3 8.3 C 0 km/h
177 20-09-2020 08:00:00 8.71667 C 7.73 g/m*3 8.72 C 0 km/h
178 20-09-2020 09:00:00 9.625 C 8.21 g/m*3 9.63 C 0 km/h
179 20-09-2020 10:00:00 11.55833 C 9 g/m*3 11.56 C 0 km/h
180 20-09-2020 11:00:00 14.05833 C 9.46 g/m*3 14.06 C 0 km/h
181 20-09-2020 12:00:00 18.15833 C 9.75 g/m*3 18.16 C 1.06667 km/h
182 20-09-2020 13:00:00 21.14167 C 9.27 g/m*3 21.14 C 4.53333 km/h
183 20-09-2020 14:00:00 22.81667 C 8.88 g/m*3 22.82 C 3.6 km/h
184 20-09-2020 15:00:00 22.975 C 9.78 g/m*3 22.98 C 1.33333 km/h
185 20-09-2020 16:00:00 22.65 C 9.75 g/m*3 22.65 C 1.06667 km/h
186 20-09-2020 17:00:00 23.95833 C 9.93 g/m*3 23.96 C 1.86667 km/h
187 20-09-2020 18:00:00 21.43333 C 9.47 g/m*3 21.43 C 5.06667 km/h
188 20-09-2020 19:00:00 18.625 C 8.91 g/m*3 18.63 C 3.6 km/h
189 20-09-2020 20:00:00 15.78333 C 8.29 g/m*3 15.78 C 1.33333 km/h
190 20-09-2020 21:00:00 14.3 C 8.13 g/m*3 14.3 C 0 km/h
191 20-09-2020 22:00:00 13.075 C 8.3 g/m*3 13.08 C 0 km/h
192 20-09-2020 23:00:00 11.68333 C 8.05 g/m*3 11.68 C 0 km/h
193 21-09-2020 00:00:00 10.94167 C 7.88 g/m*3 10.94 C 0 km/h
194 21-09-2020 01:00:00 10.25833 C 7.8 g/m*3 10.26 C 0 km/h
195 21-09-2020 02:00:00 9.54167 C 7.67 g/m*3 9.54 C 0 km/h
196 21-09-2020 03:00:00 9.03333 C 7.62 g/m*3 9.03 C 0 km/h
197 21-09-2020 04:00:00 8.55 C 7.54 g/m*3 8.55 C 0 km/h
198 21-09-2020 05:00:00 8.15 C 7.44 g/m*3 8.15 C 0 km/h
199 21-09-2020 06:00:00 7.79167 C 7.35 g/m*3 7.79 C 0 km/h
200 21-09-2020 07:00:00 7.34167 C 7.22 g/m*3 7.34 C 0 km/h
Sensor: Nr:Datum:Temp:Abs-Feuchte:Windchill:Wind:
Aussen-T/F 201 21-09-2020 08:00:00 7.525 C 7.4 g/m*3 7.53 C 0 km/h
202 21-09-2020 09:00:00 8.475 C 7.84 g/m*3 8.48 C 0 km/h
203 21-09-2020 10:00:00 10.075 C 8.54 g/m*3 10.07 C 0 km/h
204 21-09-2020 11:00:00 13.05833 C 9.27 g/m*3 13.06 C 0 km/h
205 21-09-2020 12:00:00 17.375 C 10.1 g/m*3 17.38 C 0 km/h
206 21-09-2020 13:00:00 20.58333 C 9.88 g/m*3 20.58 C 1.73333 km/h
207 21-09-2020 14:00:00 23.44167 C 9.01 g/m*3 23.44 C 7.78333 km/h
208 21-09-2020 15:00:00 24.26667 C 8.56 g/m*3 24.27 C 5.21667 km/h
209 21-09-2020 16:00:00 24.63333 C 8.44 g/m*3 24.63 C 5.9 km/h
210 21-09-2020 17:00:00 26.25833 C 8.64 g/m*3 26.26 C 2.93333 km/h
211 21-09-2020 18:00:00 25.7 C 9.36 g/m*3 25.7 C 3.06667 km/h
212 21-09-2020 19:00:00 21.13333 C 8.71 g/m*3 21.13 C 5.73333 km/h
213 21-09-2020 20:00:00 17.55833 C 8.53 g/m*3 17.56 C 0.93333 km/h
214 21-09-2020 21:00:00 15.46667 C 8.53 g/m*3 15.47 C 0 km/h
215 21-09-2020 22:00:00 13.98333 C 8.46 g/m*3 13.98 C 0 km/h
216 21-09-2020 23:00:00 12.9 C 8.51 g/m*3 12.9 C 0 km/h
217 22-09-2020 00:00:00 11.80833 C 8.37 g/m*3 11.81 C 0 km/h
218 22-09-2020 01:00:00 11.33333 C 8.3 g/m*3 11.33 C 0 km/h
219 22-09-2020 02:00:00 10.66667 C 8.11 g/m*3 10.67 C 0 km/h
220 22-09-2020 03:00:00 9.80833 C 7.97 g/m*3 9.81 C 0 km/h
221 22-09-2020 04:00:00 9.34167 C 7.89 g/m*3 9.34 C 0 km/h
222 22-09-2020 05:00:00 8.98333 C 7.85 g/m*3 8.98 C 0 km/h
223 22-09-2020 06:00:00 8.51667 C 7.72 g/m*3 8.52 C 0 km/h
224 22-09-2020 07:00:00 8.2 C 7.65 g/m*3 8.2 C 0 km/h
225 22-09-2020 08:00:00 8.54167 C 7.93 g/m*3 8.54 C 0 km/h
Sensor: Nr:Datum:Temp:Abs-Feuchte:Windchill:Wind:
Aussen-T/F 226 22-09-2020 09:00:00 9.45833 C 8.44 g/m*3 9.46 C 0 km/h
227 22-09-2020 10:00:00 11.10833 C 9.2 g/m*3 11.11 C 0 km/h
228 22-09-2020 11:00:00 14.18333 C 10.12 g/m*3 14.18 C 0 km/h
229 22-09-2020 12:00:00 18.30833 C 11.09 g/m*3 18.31 C 0.13333 km/h
230 22-09-2020 13:00:00 22.025 C 10.46 g/m*3 22.03 C 4.29167 km/h
231 22-09-2020 14:00:00 25.39167 C 9.49 g/m*3 25.39 C 11.15833 km/h
232 22-09-2020 15:00:00 26.09167 C 9.07 g/m*3 26.09 C 11.025 km/h
233 22-09-2020 16:00:00 26.51667 C 8.75 g/m*3 26.52 C 11.3 km/h
234 22-09-2020 17:00:00 27.45833 C 9.39 g/m*3 27.46 C 8.85833 km/h
235 22-09-2020 18:00:00 27.34167 C 10.25 g/m*3 27.34 C 4.54167 km/h
236 22-09-2020 19:00:00 22.64167 C 10.15 g/m*3 22.64 C 6.14167 km/h
237 22-09-2020 20:00:00 19.275 C 9.9 g/m*3 19.27 C 4.26667 km/h
238 22-09-2020 21:00:00 17.68333 C 9.7 g/m*3 17.68 C 0.66667 km/h
239 22-09-2020 22:00:00 16.43333 C 9.49 g/m*3 16.43 C 0.66667 km/h
240 22-09-2020 23:00:00 15.40833 C 9.31 g/m*3 15.41 C 0.66667 km/h
241 23-09-2020 00:00:00 14.45833 C 9.15 g/m*3 14.46 C 0.13333 km/h
242 23-09-2020 01:00:00 14.04167 C 9.23 g/m*3 14.04 C 0.53333 km/h
243 23-09-2020 02:00:00 14.49167 C 9.4 g/m*3 14.49 C 0.93333 km/h
244 23-09-2020 03:00:00 13.925 C 9.36 g/m*3 13.93 C 0 km/h
245 23-09-2020 04:00:00 14.06667 C 9.45 g/m*3 14.07 C 0 km/h
246 23-09-2020 05:00:00 12.775 C 8.94 g/m*3 12.78 C 0.13333 km/h
247 23-09-2020 06:00:00 12.125 C 8.85 g/m*3 12.13 C 0.4 km/h
248 23-09-2020 07:00:00 13.225 C 9.12 g/m*3 13.23 C 1.46667 km/h
249 23-09-2020 08:00:00 14.025 C 9.27 g/m*3 14.03 C 1.33333 km/h
250 23-09-2020 09:00:00 14.29167 C 9.33 g/m*3 14.29 C 3.89167 km/h
Sensor: Nr:Datum:Temp:Abs-Feuchte:Windchill:Wind:
Aussen-T/F 251 23-09-2020 10:00:00 17.35833 C 9.01 g/m*3 17.36 C 11.16667 km/h
252 23-09-2020 11:00:00 19.13333 C 9.62 g/m*3 19.13 C 10.35833 km/h
253 23-09-2020 12:00:00 20.29167 C 10.55 g/m*3 20.29 C 14.1 km/h
254 23-09-2020 13:00:00 21.65 C 10.84 g/m*3 21.65 C 11.41667 km/h
255 23-09-2020 14:00:00 23.03333 C 11.07 g/m*3 23.03 C 12.1 km/h
256 23-09-2020 15:00:00 23.40833 C 11.2 g/m*3 23.41 C 11.56667 km/h
257 23-09-2020 16:00:00 23.63333 C 11.24 g/m*3 23.63 C 11.29167 km/h
258 23-09-2020 17:00:00 23.78333 C 11.28 g/m*3 23.78 C 9.93333 km/h
259 23-09-2020 18:00:00 22.60833 C 11.1 g/m*3 22.61 C 5.225 km/h
260 23-09-2020 19:00:00 19.48333 C 11.16 g/m*3 19.48 C 1.46667 km/h
261 23-09-2020 20:00:00 17.35833 C 11.11 g/m*3 17.36 C 1.33333 km/h
262 23-09-2020 21:00:00 17.51667 C 11.47 g/m*3 17.52 C 2.54167 km/h
263 23-09-2020 22:00:00 17.64167 C 11.64 g/m*3 17.64 C 0.53333 km/h
264 23-09-2020 23:00:00 17.50833 C 11.75 g/m*3 17.51 C 1.6 km/h
265 24-09-2020 00:00:00 17.73333 C 11.75 g/m*3 17.73 C 4.15833 km/h
266 24-09-2020 01:00:00 18.28333 C 11.99 g/m*3 18.28 C 4.825 km/h
267 24-09-2020 02:00:00 17.56667 C 12.81 g/m*3 17.57 C 4.825 km/h
268 24-09-2020 03:00:00 16.18333 C 12.66 g/m*3 16.18 C 1.2 km/h
269 24-09-2020 04:00:00 16.03333 C 12.81 g/m*3 16.03 C 1.86667 km/h
270 24-09-2020 05:00:00 15.95 C 12.75 g/m*3 15.95 C 6.975 km/h
271 24-09-2020 06:00:00 14.54167 C 10.71 g/m*3 14.54 C 10.08333 km/h
272 24-09-2020 07:00:00 12.025 C 9.55 g/m*3 12.03 C 6.56667 km/h
273 24-09-2020 08:00:00 12.25 C 9.62 g/m*3 12.25 C 8.05833 km/h
274 24-09-2020 09:00:00 12.63333 C 9.51 g/m*3 12.63 C 10.88333 km/h
275 24-09-2020 10:00:00 13.7 C 9.32 g/m*3 13.7 C 12.23333 km/h
Sensor: Nr:Datum:Temp:Abs-Feuchte:Windchill:Wind:
Aussen-T/F 276 24-09-2020 11:00:00 14.74167 C 9.1 g/m*3 14.74 C 12.63333 km/h
277 24-09-2020 12:00:00 16.88333 C 9.21 g/m*3 16.88 C 11.16667 km/h
278 24-09-2020 13:00:00 17.73333 C 9.06 g/m*3 17.73 C 15.16667 km/h
279 24-09-2020 14:00:00 18.99167 C 9.08 g/m*3 18.99 C 14.36667 km/h
280 24-09-2020 15:00:00 19.575 C 9.29 g/m*3 19.58 C 9.80833 km/h
281 24-09-2020 16:00:00 19.71667 C 9.49 g/m*3 19.72 C 7.25833 km/h
282 24-09-2020 17:00:00 19.775 C 9.88 g/m*3 19.77 C 4.53333 km/h
283 24-09-2020 18:00:00 18.85833 C 10.63 g/m*3 18.86 C 2.14167 km/h
284 24-09-2020 19:00:00 17.05 C 11.02 g/m*3 17.05 C 2.26667 km/h
285 24-09-2020 20:00:00 16.075 C 10.86 g/m*3 16.08 C 2.26667 km/h
286 24-09-2020 21:00:00 15.05 C 10.64 g/m*3 15.05 C 1.2 km/h
287 24-09-2020 22:00:00 14.40833 C 10.66 g/m*3 14.41 C 0.93333 km/h
288 24-09-2020 23:00:00 13.76667 C 10.49 g/m*3 13.77 C 0.93333 km/h
289 25-09-2020 00:00:00 13.675 C 10.62 g/m*3 13.68 C 0.13333 km/h
290 25-09-2020 01:00:00 13.925 C 10.79 g/m*3 13.93 C 0.93333 km/h
291 25-09-2020 02:00:00 13.73333 C 10.52 g/m*3 13.73 C 10.05 km/h
292 25-09-2020 03:00:00 12.15 C 9.83 g/m*3 12.15 C 8.59167 km/h
293 25-09-2020 04:00:00 11.275 C 9.42 g/m*3 11.28 C 3.46667 km/h
294 25-09-2020 05:00:00 10.76667 C 9.2 g/m*3 10.77 C 4.40833 km/h
295 25-09-2020 06:00:00 10.50833 C 8.98 g/m*3 10.16 C 5.61667 km/h
296 25-09-2020 07:00:00 9.875 C 8.53 g/m*3 9.88 C 4.55833 km/h
297 25-09-2020 08:00:00 9.525 C 8.33 g/m*3 9.53 C 2.40833 km/h
298 25-09-2020 09:00:00 10.25833 C 8.22 g/m*3 10.26 C 2.8 km/h
299 25-09-2020 10:00:00 11.35 C 8.39 g/m*3 11.35 C 3.875 km/h
300 25-09-2020 11:00:00 12.40833 C 8.49 g/m*3 12.41 C 8.6 km/h
Sensor: Nr:Datum:Temp:Abs-Feuchte:Windchill:Wind:
Aussen-T/F 301 25-09-2020 12:00:00 13.21667 C 8.35 g/m*3 13.22 C 11.96667 km/h
302 25-09-2020 13:00:00 13.54167 C 8.25 g/m*3 13.54 C 10.88333 km/h
303 25-09-2020 14:00:00 13.03333 C 8.97 g/m*3 13.03 C 3.61667 km/h
304 25-09-2020 15:00:00 13.65 C 9.26 g/m*3 13.65 C 3.6 km/h
305 25-09-2020 16:00:00 14.23333 C 9.1 g/m*3 14.23 C 7.125 km/h
306 25-09-2020 17:00:00 14.25 C 8.79 g/m*3 14.25 C 7.525 km/h
307 25-09-2020 18:00:00 12.89167 C 8.7 g/m*3 12.89 C 9.93333 km/h
308 25-09-2020 19:00:00 11.88333 C 8.54 g/m*3 11.88 C 6.3 km/h
309 25-09-2020 20:00:00 11.75833 C 8.49 g/m*3 11.76 C 6.7 km/h
310 25-09-2020 21:00:00 11.53333 C 8.06 g/m*3 11.53 C 7.50833 km/h
311 25-09-2020 22:00:00 11.425 C 8.07 g/m*3 11.43 C 8.74167 km/h
312 25-09-2020 23:00:00 11.20833 C 8.14 g/m*3 11.21 C 10.35833 km/h
313 26-09-2020 00:00:00 10.7 C 8.06 g/m*3 8.94 C 13.7 km/h
314 26-09-2020 01:00:00 10.61667 C 7.93 g/m*3 9.05 C 12.1 km/h
315 26-09-2020 02:00:00 10.5 C 7.9 g/m*3 9.04 C 11.15833 km/h
316 26-09-2020 03:00:00 10.05 C 7.82 g/m*3 7.8 C 16.5 km/h
317 26-09-2020 04:00:00 9.81667 C 7.59 g/m*3 7.28 C 18.63333 km/h
318 26-09-2020 05:00:00 9.73333 C 7.39 g/m*3 7.07 C 19.7 km/h
319 26-09-2020 06:00:00 9.65833 C 7.53 g/m*3 6.92 C 20.23333 km/h
320 26-09-2020 07:00:00 9.425 C 7.79 g/m*3 7.37 C 13.7 km/h
321 26-09-2020 08:00:00 9.31667 C 8.14 g/m*3 7.78 C 10.20833 km/h
322 26-09-2020 09:00:00 9.9 C 8.56 g/m*3 8.79 C 8.46667 km/h
323 26-09-2020 10:00:00 10.91667 C 8.9 g/m*3 9.85 C 9.275 km/h
324 26-09-2020 11:00:00 11.58333 C 9.14 g/m*3 11.58 C 7.38333 km/h
325 26-09-2020 12:00:00 12.04167 C 9.06 g/m*3 12.04 C 11.55 km/h
Sensor: Nr:Datum:Temp:Abs-Feuchte:Windchill:Wind:
Aussen-T/F 326 26-09-2020 13:00:00 11.48333 C 9.45 g/m*3 11.48 C 5.35833 km/h
327 26-09-2020 14:00:00 11.69167 C 9.47 g/m*3 11.69 C 10.74167 km/h
328 26-09-2020 15:00:00 11.375 C 9.32 g/m*3 11.38 C 11.69167 km/h
329 26-09-2020 16:00:00 10.94167 C 9.01 g/m*3 9.5 C 11.68333 km/h
330 26-09-2020 17:00:00 10.9 C 8.97 g/m*3 9.85 C 9.15833 km/h
331 26-09-2020 18:00:00 10.81667 C 9.08 g/m*3 10.55 C 5.48333 km/h
332 26-09-2020 19:00:00 10.68333 C 9.04 g/m*3 10.68 C 4.95833 km/h
333 26-09-2020 20:00:00 10.36667 C 8.98 g/m*3 10.37 C 4.54167 km/h
334 26-09-2020 21:00:00 10.2 C 8.99 g/m*3 10.2 C 2.26667 km/h
335 26-09-2020 22:00:00 10.075 C 8.97 g/m*3 10.07 C 2.275 km/h
336 26-09-2020 23:00:00 9.85 C 8.84 g/m*3 9.85 C 3.2 km/h
337 27-09-2020 00:00:00 9.375 C 8.58 g/m*3 9.38 C 4.66667 km/h
338 27-09-2020 01:00:00 8.88333 C 8.35 g/m*3 7.77 C 7.65 km/h
339 27-09-2020 02:00:00 8.91667 C 8.42 g/m*3 7.55 C 8.85833 km/h
340 27-09-2020 03:00:00 9.325 C 8.64 g/m*3 8.92 C 5.225 km/h
341 27-09-2020 04:00:00 9.50833 C 8.74 g/m*3 9.51 C 1.74167 km/h
342 27-09-2020 05:00:00 9.6 C 8.79 g/m*3 9.6 C 0.8 km/h
343 27-09-2020 06:00:00 9.6 C 8.79 g/m*3 9.6 C 0.26667 km/h
344 27-09-2020 07:00:00 9.6 C 8.79 g/m*3 9.6 C 0.26667 km/h
345 27-09-2020 08:00:00 9.8 C 8.96 g/m*3 9.8 C 1.46667 km/h
346 27-09-2020 09:00:00 10.59167 C 9.43 g/m*3 10.59 C 2.13333 km/h
347 27-09-2020 10:00:00 11.24167 C 9.75 g/m*3 11.24 C 2 km/h
348 27-09-2020 11:00:00 12.025 C 9.89 g/m*3 12.03 C 5.075 km/h
349 27-09-2020 12:00:00 12.61667 C 9.85 g/m*3 12.62 C 5.48333 km/h
350 27-09-2020 13:00:00 13.30833 C 10 g/m*3 13.31 C 6.71667 km/h
Sensor: Nr:Datum:Temp:Abs-Feuchte:Windchill:Wind:
Aussen-T/F 351 27-09-2020 14:00:00 13.69167 C 9.59 g/m*3 13.69 C 6.41667 km/h
352 27-09-2020 15:00:00 13.39167 C 9.35 g/m*3 13.39 C 3.2 km/h
353 27-09-2020 16:00:00 13.13333 C 9.5 g/m*3 13.13 C 1.6 km/h
354 27-09-2020 17:00:00 13.1 C 9.8 g/m*3 13.1 C 0 km/h
355 27-09-2020 18:00:00 12.39167 C 9.7 g/m*3 12.39 C 2.13333 km/h
356 27-09-2020 19:00:00 11.33333 C 9.22 g/m*3 11.33 C 2.4 km/h
357 27-09-2020 20:00:00 10.89167 C 9.12 g/m*3 10.89 C 2 km/h
358 27-09-2020 21:00:00 10.74167 C 9.14 g/m*3 10.74 C 1.46667 km/h
359 27-09-2020 22:00:00 10.65833 C 9.11 g/m*3 10.66 C 0.26667 km/h
360 27-09-2020 23:00:00 10.44167 C 9.06 g/m*3 10.44 C 1.46667 km/h
361 28-09-2020 00:00:00 10.40833 C 9.06 g/m*3 10.41 C 1.33333 km/h
362 28-09-2020 01:00:00 10.5 C 9.12 g/m*3 10.5 C 0.66667 km/h
363 28-09-2020 02:00:00 10.39167 C 9.05 g/m*3 10.39 C 1.33333 km/h
364 28-09-2020 03:00:00 10.20833 C 8.97 g/m*3 10.21 C 0 km/h
365 28-09-2020 04:00:00 10.15833 C 8.98 g/m*3 10.16 C 0.4 km/h
366 28-09-2020 05:00:00 10.11667 C 8.94 g/m*3 10.12 C 0.4 km/h
367 28-09-2020 06:00:00 10.125 C 8.93 g/m*3 10.13 C 0.66667 km/h
368 28-09-2020 07:00:00 10.075 C 8.86 g/m*3 10.07 C 0.26667 km/h
369 28-09-2020 08:00:00 10.29167 C 9 g/m*3 10.29 C 0 km/h
370 28-09-2020 09:00:00 10.79167 C 9.07 g/m*3 10.79 C 0.4 km/h
371 28-09-2020 10:00:00 11.89167 C 9.08 g/m*3 11.89 C 2.66667 km/h
372 28-09-2020 11:00:00 12.98333 C 9.14 g/m*3 12.98 C 4.95 km/h
373 28-09-2020 12:00:00 13.725 C 9.11 g/m*3 13.73 C 4.41667 km/h
374 28-09-2020 13:00:00 13.81667 C 9.36 g/m*3 13.82 C 5.775 km/h
375 28-09-2020 14:00:00 14.01667 C 9.42 g/m*3 14.02 C 4.025 km/h
Sensor: Nr:Datum:Temp:Abs-Feuchte:Windchill:Wind:
Aussen-T/F 376 28-09-2020 15:00:00 14.24167 C 9.13 g/m*3 14.24 C 4.95833 km/h
377 28-09-2020 16:00:00 14 C 9.14 g/m*3 14 C 6.7 km/h
378 28-09-2020 17:00:00 13.55833 C 9.11 g/m*3 13.56 C 6.025 km/h
379 28-09-2020 18:00:00 13.25 C 9.24 g/m*3 13.25 C 2 km/h
380 28-09-2020 19:00:00 12.45833 C 9.3 g/m*3 12.46 C 1.6 km/h
381 28-09-2020 20:00:00 11.85833 C 9.08 g/m*3 11.86 C 0.8 km/h
382 28-09-2020 21:00:00 10.86667 C 8.74 g/m*3 10.87 C 0.53333 km/h
383 28-09-2020 22:00:00 10.80833 C 8.99 g/m*3 10.81 C 0 km/h
384 28-09-2020 23:00:00 10.95 C 9.15 g/m*3 10.95 C 0.13333 km/h
385 29-09-2020 00:00:00 10.975 C 9.19 g/m*3 10.98 C 0.26667 km/h
386 29-09-2020 01:00:00 11.025 C 9.22 g/m*3 11.03 C 0.4 km/h
387 29-09-2020 02:00:00 11.09167 C 9.26 g/m*3 11.09 C 0 km/h
388 29-09-2020 03:00:00 11.13333 C 9.29 g/m*3 11.13 C 0 km/h
389 29-09-2020 04:00:00 11.2 C 9.36 g/m*3 11.2 C 0 km/h
390 29-09-2020 05:00:00 11.3 C 9.49 g/m*3 11.3 C 0 km/h
391 29-09-2020 06:00:00 11.4 C 9.55 g/m*3 11.4 C 0 km/h
392 29-09-2020 07:00:00 11.59167 C 9.74 g/m*3 11.59 C 0 km/h
393 29-09-2020 08:00:00 11.81667 C 9.96 g/m*3 11.82 C 0 km/h
394 29-09-2020 09:00:00 12.2 C 10.28 g/m*3 12.2 C 1.6 km/h
395 29-09-2020 10:00:00 12.65 C 10.61 g/m*3 12.65 C 3.46667 km/h
396 29-09-2020 11:00:00 13.18333 C 10.92 g/m*3 13.18 C 3.2 km/h
397 29-09-2020 12:00:00 13.725 C 11.23 g/m*3 13.73 C 5.06667 km/h
398 29-09-2020 13:00:00 14.1 C 11.38 g/m*3 14.1 C 6.01667 km/h
399 29-09-2020 14:00:00 14.30833 C 11.62 g/m*3 14.31 C 6.43333 km/h
400 29-09-2020 15:00:00 14.26667 C 11.54 g/m*3 14.27 C 7.93333 km/h
Sensor: Nr:Datum:Temp:Abs-Feuchte:Windchill:Wind:
Aussen-T/F 401 29-09-2020 16:00:00 13.43333 C 10.98 g/m*3 13.43 C 5.21667 km/h
402 29-09-2020 17:00:00 13.15833 C 10.88 g/m*3 13.16 C 2.14167 km/h
403 29-09-2020 18:00:00 13.21667 C 10.92 g/m*3 13.22 C 1.86667 km/h
404 29-09-2020 19:00:00 12.425 C 10.4 g/m*3 12.43 C 4.54167 km/h
405 29-09-2020 20:00:00 11.55 C 9.84 g/m*3 11.55 C 0.13333 km/h
406 29-09-2020 21:00:00 10.70833 C 9.34 g/m*3 10.71 C 0 km/h
407 29-09-2020 22:00:00 10.24167 C 9.15 g/m*3 10.24 C 0 km/h
408 29-09-2020 23:00:00 10.5 C 9.34 g/m*3 10.5 C 0 km/h
409 30-09-2020 00:00:00 10.88333 C 9.64 g/m*3 10.88 C 0 km/h
410 30-09-2020 01:00:00 11.05833 C 9.74 g/m*3 11.06 C 0 km/h
411 30-09-2020 02:00:00 11.2 C 9.83 g/m*3 11.2 C 0 km/h
412 30-09-2020 03:00:00 11.49167 C 10.01 g/m*3 11.49 C 0 km/h
413 30-09-2020 04:00:00 11.75833 C 10.18 g/m*3 11.76 C 0 km/h
414 30-09-2020 05:00:00 11.90833 C 10.28 g/m*3 11.91 C 0 km/h
415 30-09-2020 06:00:00 12.11667 C 10.41 g/m*3 12.12 C 0 km/h
416 30-09-2020 07:00:00 12.23333 C 10.49 g/m*3 12.23 C 0 km/h
417 30-09-2020 08:00:00 12.65 C 10.76 g/m*3 12.65 C 0 km/h
418 30-09-2020 09:00:00 13.59167 C 11.44 g/m*3 13.59 C 0 km/h
419 30-09-2020 10:00:00 14.675 C 12.26 g/m*3 14.68 C 2.13333 km/h
420 30-09-2020 11:00:00 15.65833 C 12.76 g/m*3 15.66 C 4.81667 km/h
421 30-09-2020 12:00:00 16.64167 C 12.95 g/m*3 16.64 C 3.21667 km/h
422 30-09-2020 13:00:00 16.89167 C 12.81 g/m*3 16.89 C 1.6 km/h
423 30-09-2020 14:00:00 17.64167 C 12.94 g/m*3 17.64 C 3.46667 km/h
424 30-09-2020 15:00:00 18.15 C 12.88 g/m*3 18.15 C 4.66667 km/h
425 30-09-2020 16:00:00 17.9 C 12.66 g/m*3 17.9 C 3.86667 km/h
Sensor: Nr:Datum:Temp:Abs-Feuchte:Windchill:Wind:
Aussen-T/F 426 30-09-2020 17:00:00 18.00833 C 12.6 g/m*3 18.01 C 3.46667 km/h
427 30-09-2020 18:00:00 17.05 C 12.31 g/m*3 17.05 C 1.73333 km/h
428 30-09-2020 19:00:00 15.55833 C 12.03 g/m*3 15.56 C 0.13333 km/h
429 30-09-2020 20:00:00 14.54167 C 11.43 g/m*3 14.54 C 1.6 km/h
430 30-09-2020 21:00:00 13.25833 C 10.69 g/m*3 13.26 C 1.2 km/h
431 30-09-2020 22:00:00 12.175 C 10.12 g/m*3 12.18 C 2.13333 km/h
432 30-09-2020 23:00:00 11.55 C 9.84 g/m*3 11.55 C 1.73333 km/h
433 01-10-2020 00:00:00 11.06667 C 9.57 g/m*3 11.07 C 0.26667 km/h
434 01-10-2020 01:00:00 10.68333 C 9.4 g/m*3 10.68 C 0.13333 km/h
435 01-10-2020 02:00:00 10.15833 C 9.11 g/m*3 10.16 C 0.4 km/h
436 01-10-2020 03:00:00 9.85833 C 8.94 g/m*3 9.86 C 0.13333 km/h
437 01-10-2020 04:00:00 9.91667 C 9 g/m*3 9.92 C 0 km/h
438 01-10-2020 05:00:00 10.48333 C 9.39 g/m*3 10.48 C 0 km/h
439 01-10-2020 06:00:00 9.81667 C 8.98 g/m*3 9.82 C 0.26667 km/h
440 01-10-2020 07:00:00 9.51667 C 8.81 g/m*3 9.52 C 0 km/h
441 01-10-2020 08:00:00 10.05833 C 9.15 g/m*3 10.06 C 0 km/h
442 01-10-2020 09:00:00 10.80833 C 9.59 g/m*3 10.81 C 0 km/h
443 01-10-2020 10:00:00 12.25 C 10.57 g/m*3 12.25 C 2.94167 km/h
444 01-10-2020 11:00:00 14.08333 C 11.38 g/m*3 14.08 C 2.8 km/h
445 01-10-2020 12:00:00 16.04167 C 11.72 g/m*3 16.04 C 4.26667 km/h
446 01-10-2020 13:00:00 16.95833 C 11.68 g/m*3 16.96 C 5.35 km/h
447 01-10-2020 14:00:00 16.90833 C 11.52 g/m*3 16.91 C 2.13333 km/h
448 01-10-2020 15:00:00 15.9 C 11.92 g/m*3 15.9 C 1.6 km/h
449 01-10-2020 16:00:00 15.275 C 11.89 g/m*3 15.28 C 1.33333 km/h
450 01-10-2020 17:00:00 15.23333 C 12.06 g/m*3 15.23 C 0.66667 km/h
Sensor: Nr:Datum:Temp:Abs-Feuchte:Windchill:Wind:
Aussen-T/F 451 01-10-2020 18:00:00 16.05 C 12.38 g/m*3 16.05 C 2.94167 km/h
452 01-10-2020 19:00:00 13.75 C 10.77 g/m*3 13.75 C 4.26667 km/h
453 01-10-2020 20:00:00 12.34167 C 10.18 g/m*3 12.34 C 3.46667 km/h
454 01-10-2020 21:00:00 12.33333 C 10.35 g/m*3 12.33 C 4.01667 km/h
455 01-10-2020 22:00:00 11.475 C 9.8 g/m*3 11.48 C 1.6 km/h
456 01-10-2020 23:00:00 10.825 C 9.48 g/m*3 10.83 C 4.41667 km/h
457 02-10-2020 00:00:00 10.5 C 9.29 g/m*3 10.5 C 2.13333 km/h
458 02-10-2020 01:00:00 9.85833 C 8.94 g/m*3 9.86 C 0 km/h
459 02-10-2020 02:00:00 9.21667 C 8.58 g/m*3 9.22 C 0 km/h
460 02-10-2020 03:00:00 8.675 C 8.29 g/m*3 8.68 C 0 km/h
461 02-10-2020 04:00:00 8 C 7.94 g/m*3 8 C 0 km/h
462 02-10-2020 05:00:00 7.8 C 7.86 g/m*3 7.8 C 0 km/h
463 02-10-2020 06:00:00 8.13333 C 8.09 g/m*3 8.13 C 0 km/h
464 02-10-2020 07:00:00 8.46667 C 8.26 g/m*3 8.47 C 0 km/h
465 02-10-2020 08:00:00 9.19167 C 8.66 g/m*3 9.19 C 0 km/h
466 02-10-2020 09:00:00 10.56667 C 9.51 g/m*3 10.57 C 3.20833 km/h
467 02-10-2020 10:00:00 11.975 C 10.37 g/m*3 11.98 C 1.46667 km/h
468 02-10-2020 11:00:00 12.54167 C 10.69 g/m*3 12.54 C 3.34167 km/h
469 02-10-2020 12:00:00 14.15833 C 11.22 g/m*3 14.16 C 10.35833 km/h
470 02-10-2020 13:00:00 16.11667 C 11.62 g/m*3 16.12 C 7.125 km/h
471 02-10-2020 14:00:00 17.65 C 12.01 g/m*3 17.65 C 8.325 km/h
472 02-10-2020 15:00:00 18.44167 C 12.31 g/m*3 18.44 C 5.08333 km/h
473 02-10-2020 16:00:00 18.85 C 12.4 g/m*3 18.85 C 6.45 km/h
474 02-10-2020 17:00:00 18.54167 C 12.15 g/m*3 18.54 C 6.70833 km/h
475 02-10-2020 18:00:00 17.40833 C 12.01 g/m*3 17.41 C 6.98333 km/h
Sensor: Nr:Datum:Temp:Abs-Feuchte:Windchill:Wind:
Aussen-T/F 476 02-10-2020 19:00:00 17.44167 C 11.96 g/m*3 17.44 C 6.3 km/h
477 02-10-2020 20:00:00 17.15833 C 11.83 g/m*3 17.16 C 8.45 km/h
478 02-10-2020 21:00:00 17.43333 C 11.78 g/m*3 17.43 C 4.55 km/h
479 02-10-2020 22:00:00 16.725 C 11.56 g/m*3 16.73 C 4.40833 km/h
480 02-10-2020 23:00:00 17.10833 C 11.29 g/m*3 17.11 C 10.875 km/h
481 03-10-2020 00:00:00 17.35833 C 11.19 g/m*3 17.36 C 7.65833 km/h
482 03-10-2020 01:00:00 17.16667 C 11.11 g/m*3 17.17 C 8.2 km/h
483 03-10-2020 02:00:00 15.73333 C 10.9 g/m*3 15.73 C 3.33333 km/h
484 03-10-2020 03:00:00 14.275 C 10.92 g/m*3 14.28 C 2.66667 km/h
485 03-10-2020 04:00:00 14.19167 C 11.04 g/m*3 14.19 C 0 km/h
486 03-10-2020 05:00:00 13.73333 C 10.79 g/m*3 13.73 C 0 km/h
487 03-10-2020 06:00:00 13.3 C 10.69 g/m*3 13.3 C 0 km/h
488 03-10-2020 07:00:00 13.45 C 10.91 g/m*3 13.45 C 2.675 km/h
489 03-10-2020 08:00:00 13.85 C 11.19 g/m*3 13.85 C 5.61667 km/h
490 03-10-2020 09:00:00 13.83333 C 11 g/m*3 13.83 C 7.78333 km/h
491 03-10-2020 10:00:00 13.69167 C 10.6 g/m*3 13.69 C 11.7 km/h
492 03-10-2020 11:00:00 13.53333 C 10.34 g/m*3 13.53 C 12.49167 km/h
493 03-10-2020 12:00:00 13.08333 C 9.95 g/m*3 13.08 C 13.425 km/h
494 03-10-2020 13:00:00 12.95833 C 9.74 g/m*3 12.96 C 10.85833 km/h
495 03-10-2020 14:00:00 12.025 C 9.72 g/m*3 12.03 C 3.475 km/h
496 03-10-2020 15:00:00 11.94167 C 9.8 g/m*3 11.94 C 1.73333 km/h
497 03-10-2020 16:00:00 12.38333 C 9.75 g/m*3 12.38 C 1.86667 km/h
498 03-10-2020 17:00:00 14.28333 C 10.3 g/m*3 14.28 C 2.8 km/h
499 03-10-2020 18:00:00 14.45 C 10.22 g/m*3 14.45 C 3.86667 km/h
500 03-10-2020 19:00:00 11.88333 C 9.51 g/m*3 11.88 C 2 km/h
Sensor: Nr:Datum:Temp:Abs-Feuchte:Windchill:Wind:
Aussen-T/F 501 03-10-2020 20:00:00 11.4 C 9.23 g/m*3 11.4 C 2.26667 km/h
502 03-10-2020 21:00:00 10.81667 C 9.13 g/m*3 10.82 C 0.8 km/h
503 03-10-2020 22:00:00 10.35833 C 8.99 g/m*3 10.36 C 2.66667 km/h
504 03-10-2020 23:00:00 11.19167 C 9.28 g/m*3 11.19 C 4.95 km/h
505 04-10-2020 00:00:00 10.66667 C 8.95 g/m*3 10.67 C 2.66667 km/h
506 04-10-2020 01:00:00 10.63333 C 9.13 g/m*3 10.63 C 1.2 km/h
507 04-10-2020 02:00:00 10.38333 C 9.05 g/m*3 10.38 C 2.26667 km/h
508 04-10-2020 03:00:00 9.925 C 8.83 g/m*3 9.93 C 1.6 km/h
509 04-10-2020 04:00:00 9.96667 C 8.99 g/m*3 9.97 C 2.66667 km/h
510 04-10-2020 05:00:00 10.38333 C 9.19 g/m*3 10.38 C 4.95 km/h
511 04-10-2020 06:00:00 10.70833 C 9.34 g/m*3 10.71 C 4.95 km/h
512 04-10-2020 07:00:00 10.53333 C 9.19 g/m*3 10.53 C 4.14167 km/h
513 04-10-2020 08:00:00 10.43333 C 9.2 g/m*3 10.43 C 2 km/h
514 04-10-2020 09:00:00 10.93333 C 9.33 g/m*3 10.79 C 5.075 km/h
515 04-10-2020 10:00:00 11.56667 C 9.27 g/m*3 11.57 C 6.575 km/h
516 04-10-2020 11:00:00 12.54167 C 8.98 g/m*3 12.54 C 16.9 km/h
517 04-10-2020 12:00:00 13.175 C 8.75 g/m*3 13.18 C 12.63333 km/h
518 04-10-2020 13:00:00 13.49167 C 8.29 g/m*3 13.49 C 12.36667 km/h
519 04-10-2020 14:00:00 14.15 C 8.51 g/m*3 14.15 C 12.1 km/h
520 04-10-2020 15:00:00 14.96667 C 8.66 g/m*3 14.97 C 8.86667 km/h
521 04-10-2020 16:00:00 15.38333 C 8.65 g/m*3 15.38 C 6.85 km/h
522 04-10-2020 17:00:00 15.00833 C 9.16 g/m*3 15.01 C 2.26667 km/h
523 04-10-2020 18:00:00 14.2 C 9.61 g/m*3 14.2 C 1.86667 km/h
524 04-10-2020 19:00:00 12.56667 C 9.45 g/m*3 12.57 C 4.69167 km/h
525 04-10-2020 20:00:00 11.63333 C 9.5 g/m*3 11.63 C 0.93333 km/h
Sensor: Nr:Datum:Temp:Abs-Feuchte:Windchill:Wind:
Aussen-T/F 526 04-10-2020 21:00:00 11.05 C 9.39 g/m*3 11.05 C 2.00833 km/h
527 04-10-2020 22:00:00 9.9 C 8.77 g/m*3 9.9 C 1.33333 km/h
528 04-10-2020 23:00:00 8.96667 C 8.34 g/m*3 8.97 C 0 km/h
529 05-10-2020 00:00:00 8.61667 C 8.2 g/m*3 8.62 C 3.21667 km/h
530 05-10-2020 01:00:00 8.59167 C 8.23 g/m*3 8.59 C 2.53333 km/h
531 05-10-2020 02:00:00 9.175 C 8.58 g/m*3 9.18 C 3.06667 km/h
532 05-10-2020 03:00:00 9.11667 C 8.56 g/m*3 9.12 C 1.33333 km/h
533 05-10-2020 04:00:00 8.94167 C 8.48 g/m*3 8.94 C 2.66667 km/h
534 05-10-2020 05:00:00 8.59167 C 8.28 g/m*3 8.59 C 3.33333 km/h
535 05-10-2020 06:00:00 8.51667 C 8.29 g/m*3 8.52 C 3.33333 km/h
536 05-10-2020 07:00:00 8.76667 C 8.42 g/m*3 8.77 C 1.86667 km/h
537 05-10-2020 08:00:00 9.23333 C 8.68 g/m*3 9.23 C 2.8 km/h
538 05-10-2020 09:00:00 10.125 C 9.19 g/m*3 10.13 C 2.93333 km/h
539 05-10-2020 10:00:00 10.275 C 9.15 g/m*3 10.04 C 5.09167 km/h
540 05-10-2020 11:00:00 11.60833 C 9.15 g/m*3 11.61 C 8.46667 km/h
541 05-10-2020 12:00:00 12.90833 C 9.27 g/m*3 12.91 C 8.325 km/h
542 05-10-2020 13:00:00 12.875 C 9.49 g/m*3 12.88 C 6.16667 km/h
543 05-10-2020 14:00:00 13.1 C 10.07 g/m*3 13.1 C 4.29167 km/h
544 05-10-2020 15:00:00 14.04167 C 10.13 g/m*3 14.04 C 9.54167 km/h
545 05-10-2020 16:00:00 14.275 C 9.97 g/m*3 14.28 C 10.09167 km/h
546 05-10-2020 17:00:00 13.65833 C 9.73 g/m*3 13.66 C 10.20833 km/h
547 05-10-2020 18:00:00 13.375 C 9.75 g/m*3 13.38 C 3.34167 km/h
548 05-10-2020 19:00:00 12.825 C 9.76 g/m*3 12.83 C 1.46667 km/h
549 05-10-2020 20:00:00 12.09167 C 9.61 g/m*3 12.09 C 3.475 km/h
550 05-10-2020 21:00:00 11.90833 C 9.74 g/m*3 11.91 C 0.8 km/h
Sensor: Nr:Datum:Temp:Abs-Feuchte:Windchill:Wind:
Aussen-T/F 551 05-10-2020 22:00:00 11.59167 C 9.68 g/m*3 11.59 C 0.53333 km/h
552 05-10-2020 23:00:00 11.53333 C 9.82 g/m*3 11.53 C 1.46667 km/h
553 06-10-2020 00:00:00 11.79167 C 10.04 g/m*3 11.79 C 0.66667 km/h
554 06-10-2020 01:00:00 11.8 C 10.1 g/m*3 11.8 C 2.14167 km/h
555 06-10-2020 02:00:00 11.8 C 10.1 g/m*3 11.8 C 2.68333 km/h
556 06-10-2020 03:00:00 11.93333 C 10.21 g/m*3 11.93 C 4.825 km/h
557 06-10-2020 04:00:00 12.275 C 10.32 g/m*3 12.28 C 16.23333 km/h
558 06-10-2020 05:00:00 12.11667 C 9.89 g/m*3 12.12 C 22.8 km/h
559 06-10-2020 06:00:00 11.8 C 9.39 g/m*3 11.8 C 16.63333 km/h
560 06-10-2020 07:00:00 11.70833 C 9.24 g/m*3 11.71 C 11.55833 km/h
561 06-10-2020 08:00:00 11.95 C 9.26 g/m*3 11.95 C 8.73333 km/h
562 06-10-2020 09:00:00 12.60833 C 9.52 g/m*3 12.61 C 5.075 km/h
563 06-10-2020 10:00:00 13.3 C 9.8 g/m*3 13.3 C 6.99167 km/h
564 06-10-2020 11:00:00 13.88333 C 10.12 g/m*3 13.88 C 11.3 km/h
565 06-10-2020 12:00:00 14.80833 C 10.6 g/m*3 14.81 C 11.41667 km/h
566 06-10-2020 13:00:00 15.05 C 10.65 g/m*3 15.05 C 8.06667 km/h
567 06-10-2020 14:00:00 15.05 C 11.18 g/m*3 15.05 C 9.8 km/h
568 06-10-2020 15:00:00 15.35833 C 10.91 g/m*3 15.36 C 14.76667 km/h
569 06-10-2020 16:00:00 15.425 C 10.74 g/m*3 15.43 C 12.09167 km/h
570 06-10-2020 17:00:00 14.78333 C 10.68 g/m*3 14.78 C 10.225 km/h
571 06-10-2020 18:00:00 13.36667 C 10.46 g/m*3 13.37 C 8.88333 km/h
572 06-10-2020 19:00:00 12.94167 C 10.1 g/m*3 12.94 C 9.525 km/h
573 06-10-2020 20:00:00 12.86667 C 9.99 g/m*3 12.87 C 7.375 km/h
574 06-10-2020 21:00:00 12.675 C 9.86 g/m*3 12.68 C 6.575 km/h
575 06-10-2020 22:00:00 12.775 C 9.81 g/m*3 12.78 C 12.5 km/h
Sensor: Nr:Datum:Temp:Abs-Feuchte:Windchill:Wind:
Aussen-T/F 576 06-10-2020 23:00:00 12.66667 C 9.66 g/m*3 12.67 C 12.5 km/h
577 07-10-2020 00:00:00 12.25 C 9.53 g/m*3 12.25 C 9.40833 km/h
578 07-10-2020 01:00:00 12.325 C 9.62 g/m*3 12.33 C 9.4 km/h
579 07-10-2020 02:00:00 11.90833 C 9.62 g/m*3 11.91 C 11.825 km/h
580 07-10-2020 03:00:00 11.85 C 9.54 g/m*3 11.85 C 11.83333 km/h
581 07-10-2020 04:00:00 12.2 C 9.48 g/m*3 12.2 C 11.95833 km/h
582 07-10-2020 05:00:00 12.15 C 9.43 g/m*3 12.15 C 10.23333 km/h
583 07-10-2020 06:00:00 11.99167 C 9.43 g/m*3 11.99 C 12.225 km/h
584 07-10-2020 07:00:00 12.10833 C 9.51 g/m*3 12.11 C 13.025 km/h
585 07-10-2020 08:00:00 12.50833 C 9.5 g/m*3 12.51 C 12.63333 km/h
586 07-10-2020 09:00:00 12.76667 C 9.57 g/m*3 12.77 C 11.025 km/h
587 07-10-2020 10:00:00 13.24167 C 9.65 g/m*3 13.24 C 12.76667 km/h
588 07-10-2020 11:00:00 13.8 C 9.33 g/m*3 13.8 C 13.29167 km/h
589 07-10-2020 12:00:00 14.725 C 9.39 g/m*3 14.73 C 15.3 km/h
590 07-10-2020 13:00:00 15.09167 C 9.57 g/m*3 15.09 C 13.69167 km/h
591 07-10-2020 14:00:00 15.075 C 9.75 g/m*3 15.08 C 13.825 km/h
592 07-10-2020 15:00:00 14.225 C 9.97 g/m*3 14.23 C 11.55833 km/h
593 07-10-2020 16:00:00 14.81667 C 10.01 g/m*3 14.82 C 8.98333 km/h
594 07-10-2020 17:00:00 14.86667 C 9.6 g/m*3 14.87 C 9.53333 km/h
595 07-10-2020 18:00:00 14.50833 C 9.35 g/m*3 14.51 C 7.65833 km/h
596 07-10-2020 19:00:00 14 C 8.63 g/m*3 14 C 11.03333 km/h
597 07-10-2020 20:00:00 13.55 C 8.63 g/m*3 13.55 C 8.46667 km/h
598 07-10-2020 21:00:00 12.85 C 8.81 g/m*3 12.85 C 5.76667 km/h
599 07-10-2020 22:00:00 12.24167 C 8.92 g/m*3 12.24 C 4.66667 km/h
600 07-10-2020 23:00:00 11.61667 C 8.84 g/m*3 11.62 C 2.53333 km/h
Sensor: Nr:Datum:Temp:Abs-Feuchte:Windchill:Wind:
Aussen-T/F 601 08-10-2020 00:00:00 10.375 C 8.49 g/m*3 10.38 C 3.74167 km/h
602 08-10-2020 01:00:00 9.44167 C 8.23 g/m*3 9.44 C 1.6 km/h
603 08-10-2020 02:00:00 8.89167 C 8.07 g/m*3 8.89 C 0.53333 km/h
604 08-10-2020 03:00:00 8.325 C 7.88 g/m*3 8.32 C 0.53333 km/h
605 08-10-2020 04:00:00 8.46667 C 8.07 g/m*3 8.47 C 0 km/h
606 08-10-2020 05:00:00 9.06667 C 8.42 g/m*3 9.07 C 0.26667 km/h
607 08-10-2020 06:00:00 9.66667 C 8.82 g/m*3 9.67 C 0 km/h
608 08-10-2020 07:00:00 10.01667 C 9.03 g/m*3 10.02 C 0 km/h
609 08-10-2020 08:00:00 10.76667 C 9.52 g/m*3 10.77 C 0.8 km/h
610 08-10-2020 09:00:00 11.83333 C 10.23 g/m*3 11.83 C 4.29167 km/h
611 08-10-2020 10:00:00 12.59167 C 10.7 g/m*3 12.59 C 3.49167 km/h
612 08-10-2020 11:00:00 13.85 C 11.23 g/m*3 13.85 C 9.13333 km/h
613 08-10-2020 12:00:00 15.33333 C 11.28 g/m*3 15.33 C 19.05 km/h
614 08-10-2020 13:00:00 15.825 C 11.28 g/m*3 15.83 C 25.075 km/h
615 08-10-2020 14:00:00 16.15 C 11.38 g/m*3 16.15 C 17.7 km/h
616 08-10-2020 15:00:00 16.425 C 11.37 g/m*3 16.43 C 18.23333 km/h
617 08-10-2020 16:00:00 16.39167 C 11.49 g/m*3 16.39 C 17.43333 km/h
618 08-10-2020 17:00:00 16.53333 C 11.47 g/m*3 16.53 C 11.80833 km/h
619 08-10-2020 18:00:00 16.525 C 11.45 g/m*3 16.52 C 11.55 km/h
620 08-10-2020 19:00:00 16.30833 C 11.41 g/m*3 16.31 C 16.775 km/h
621 08-10-2020 20:00:00 16.29167 C 11.57 g/m*3 16.29 C 20.1 km/h
622 08-10-2020 21:00:00 16.23333 C 11.72 g/m*3 16.23 C 17.43333 km/h
623 08-10-2020 22:00:00 16.46667 C 11.78 g/m*3 16.47 C 19.96667 km/h
624 08-10-2020 23:00:00 16.28333 C 11.82 g/m*3 16.28 C 18.775 km/h
625 09-10-2020 00:00:00 16.18333 C 11.76 g/m*3 16.18 C 19.84167 km/h
Sensor: Nr:Datum:Temp:Abs-Feuchte:Windchill:Wind:
Aussen-T/F 626 09-10-2020 01:00:00 15.38333 C 11.41 g/m*3 15.38 C 11.55833 km/h
627 09-10-2020 02:00:00 13.83333 C 10.99 g/m*3 13.83 C 1.86667 km/h
628 09-10-2020 03:00:00 13.35 C 10.89 g/m*3 13.35 C 1.06667 km/h
629 09-10-2020 04:00:00 12.825 C 10.63 g/m*3 12.83 C 2.13333 km/h
630 09-10-2020 05:00:00 12.66667 C 10.55 g/m*3 12.67 C 0 km/h
631 09-10-2020 06:00:00 12.6 C 10.55 g/m*3 12.6 C 0 km/h
632 09-10-2020 07:00:00 12.58333 C 10.61 g/m*3 12.58 C 0 km/h
633 09-10-2020 08:00:00 12.65833 C 10.66 g/m*3 12.66 C 0 km/h
634 09-10-2020 09:00:00 12.875 C 10.8 g/m*3 12.88 C 1.6 km/h
635 09-10-2020 10:00:00 12.96667 C 10.94 g/m*3 12.97 C 0.8 km/h
636 09-10-2020 11:00:00 13.375 C 11.26 g/m*3 13.38 C 0 km/h
637 09-10-2020 12:00:00 14.125 C 11.79 g/m*3 14.13 C 1.46667 km/h
638 09-10-2020 13:00:00 14.775 C 12.26 g/m*3 14.78 C 4.425 km/h
639 09-10-2020 14:00:00 14.9 C 12.18 g/m*3 14.9 C 7.24167 km/h
640 09-10-2020 15:00:00 14.69167 C 11.93 g/m*3 14.69 C 5.48333 km/h
641 09-10-2020 16:00:00 13.64167 C 11.17 g/m*3 13.64 C 2.14167 km/h
642 09-10-2020 17:00:00 13.1 C 10.89 g/m*3 13.1 C 4.825 km/h
643 09-10-2020 18:00:00 12.20833 C 10.26 g/m*3 12.21 C 4.26667 km/h
644 09-10-2020 19:00:00 11.14167 C 9.61 g/m*3 11.14 C 4.28333 km/h
645 09-10-2020 20:00:00 10.31667 C 9.18 g/m*3 10.32 C 0 km/h
646 09-10-2020 21:00:00 10.425 C 9.27 g/m*3 10.43 C 0 km/h
647 09-10-2020 22:00:00 10.275 C 9.22 g/m*3 10.28 C 0 km/h
648 09-10-2020 23:00:00 10.875 C 9.63 g/m*3 10.88 C 0 km/h
649 10-10-2020 00:00:00 10.89167 C 9.64 g/m*3 10.89 C 0.53333 km/h
650 10-10-2020 01:00:00 10 C 9.08 g/m*3 10 C 4.275 km/h
Sensor: Nr:Datum:Temp:Abs-Feuchte:Windchill:Wind:
Aussen-T/F 651 10-10-2020 02:00:00 9.60833 C 8.89 g/m*3 9.61 C 2.26667 km/h
652 10-10-2020 03:00:00 9.61667 C 8.9 g/m*3 9.62 C 2.8 km/h
653 10-10-2020 04:00:00 9.86667 C 9.04 g/m*3 9.87 C 2.93333 km/h
654 10-10-2020 05:00:00 9.81667 C 9.01 g/m*3 9.82 C 0.53333 km/h
655 10-10-2020 06:00:00 9.51667 C 8.84 g/m*3 9.52 C 0.13333 km/h
656 10-10-2020 07:00:00 8.925 C 8.51 g/m*3 8.93 C 3.06667 km/h
657 10-10-2020 08:00:00 8.375 C 8.22 g/m*3 8.38 C 3.2 km/h
658 10-10-2020 09:00:00 8.275 C 8.16 g/m*3 8.28 C 1.73333 km/h
659 10-10-2020 10:00:00 8.18333 C 8.11 g/m*3 8.18 C 4.675 km/h
660 10-10-2020 11:00:00 9.075 C 8.42 g/m*3 8.16 C 6.96667 km/h
661 10-10-2020 12:00:00 10.99167 C 7.93 g/m*3 9.43 C 12.625 km/h
662 10-10-2020 13:00:00 12.24167 C 7.51 g/m*3 12.24 C 12.89167 km/h
663 10-10-2020 14:00:00 12.5 C 7.31 g/m*3 12.5 C 9.825 km/h
664 10-10-2020 15:00:00 12.65 C 7.23 g/m*3 12.65 C 9.95 km/h
665 10-10-2020 16:00:00 12.675 C 7.24 g/m*3 12.68 C 9.675 km/h
666 10-10-2020 17:00:00 12.44167 C 7.47 g/m*3 12.44 C 6.98333 km/h
667 10-10-2020 18:00:00 11.80833 C 7.84 g/m*3 11.81 C 5.86667 km/h
668 10-10-2020 19:00:00 8.66667 C 7.17 g/m*3 7.78 C 6.56667 km/h
669 10-10-2020 20:00:00 7.39167 C 6.89 g/m*3 6.76 C 5.09167 km/h
670 10-10-2020 21:00:00 6.65 C 6.86 g/m*3 6.65 C 3.475 km/h
671 10-10-2020 22:00:00 8.26667 C 7.31 g/m*3 7.22 C 6.96667 km/h
672 10-10-2020 23:00:00 9.64167 C 7.37 g/m*3 8.54 C 8.2 km/h
673 11-10-2020 00:00:00 9.45 C 7.39 g/m*3 8.26 C 8.475 km/h
674 11-10-2020 01:00:00 9.64167 C 7.55 g/m*3 8.63 C 7.775 km/h
675 11-10-2020 02:00:00 9.425 C 7.64 g/m*3 9.04 C 5.20833 km/h
Sensor: Nr:Datum:Temp:Abs-Feuchte:Windchill:Wind:
Aussen-T/F 676 11-10-2020 03:00:00 9.35 C 7.76 g/m*3 9.35 C 3.2 km/h
677 11-10-2020 04:00:00 9.15833 C 7.81 g/m*3 9.16 C 3.88333 km/h
678 11-10-2020 05:00:00 8.96667 C 7.83 g/m*3 8.97 C 2.26667 km/h
679 11-10-2020 06:00:00 8.76667 C 7.8 g/m*3 8.77 C 0 km/h
680 11-10-2020 07:00:00 8.60833 C 7.9 g/m*3 8.61 C 1.6 km/h
681 11-10-2020 08:00:00 8.20833 C 7.82 g/m*3 8.21 C 1.33333 km/h
682 11-10-2020 09:00:00 8.54167 C 8.05 g/m*3 8.54 C 2.13333 km/h
683 11-10-2020 10:00:00 9.21667 C 8.22 g/m*3 9.22 C 1.86667 km/h
684 11-10-2020 11:00:00 9.475 C 8.13 g/m*3 9.48 C 0.93333 km/h
685 11-10-2020 12:00:00 10.50833 C 8.26 g/m*3 10.51 C 4.15 km/h
686 11-10-2020 13:00:00 11.54167 C 8.03 g/m*3 11.54 C 3.75 km/h
687 11-10-2020 14:00:00 12.44167 C 7.57 g/m*3 12.44 C 4.69167 km/h
688 11-10-2020 15:00:00 13.09167 C 7.2 g/m*3 13.09 C 8.19167 km/h
689 11-10-2020 16:00:00 12.90833 C 7.3 g/m*3 12.91 C 9.41667 km/h
690 11-10-2020 17:00:00 12.575 C 7.63 g/m*3 12.58 C 3.075 km/h
691 11-10-2020 18:00:00 11.86667 C 8.34 g/m*3 11.87 C 2.4 km/h
692 11-10-2020 19:00:00 9.91667 C 7.73 g/m*3 9.92 C 3.46667 km/h
693 11-10-2020 20:00:00 10.20833 C 8.01 g/m*3 9.81 C 5.63333 km/h
694 11-10-2020 21:00:00 9.51667 C 8.19 g/m*3 9.52 C 4.54167 km/h
695 11-10-2020 22:00:00 9.14167 C 8.24 g/m*3 9.14 C 1.46667 km/h
696 11-10-2020 23:00:00 9.14167 C 8.33 g/m*3 9.14 C 1.6 km/h
697 12-10-2020 00:00:00 9.13333 C 8.36 g/m*3 9.13 C 2 km/h
698 12-10-2020 01:00:00 9.01667 C 8.33 g/m*3 9.02 C 1.86667 km/h
699 12-10-2020 02:00:00 9.08333 C 8.42 g/m*3 9.08 C 0.4 km/h
700 12-10-2020 03:00:00 8.95 C 8.35 g/m*3 8.95 C 0.13333 km/h
Sensor: Nr:Datum:Temp:Abs-Feuchte:Windchill:Wind:
Aussen-T/F 701 12-10-2020 04:00:00 8.9 C 8.32 g/m*3 8.9 C 0.26667 km/h
702 12-10-2020 05:00:00 8.89167 C 8.32 g/m*3 8.89 C 0.8 km/h
703 12-10-2020 06:00:00 8.69167 C 8.21 g/m*3 8.69 C 1.6 km/h
704 12-10-2020 07:00:00 8.71667 C 8.25 g/m*3 8.72 C 1.06667 km/h
705 12-10-2020 08:00:00 8.80833 C 8.28 g/m*3 8.81 C 0.66667 km/h
706 12-10-2020 09:00:00 9.16667 C 8.49 g/m*3 9.17 C 0.8 km/h
707 12-10-2020 10:00:00 9.64167 C 8.69 g/m*3 9.64 C 4.53333 km/h
708 12-10-2020 11:00:00 10.68333 C 8.95 g/m*3 10.68 C 3.06667 km/h
709 12-10-2020 12:00:00 11.63333 C 8.99 g/m*3 11.63 C 3.33333 km/h
710 12-10-2020 13:00:00 12.28333 C 8.9 g/m*3 12.28 C 6.30833 km/h
711 12-10-2020 14:00:00 12.24167 C 8.99 g/m*3 12.24 C 6.575 km/h
712 12-10-2020 15:00:00 12.19167 C 8.83 g/m*3 12.19 C 8.31667 km/h
713 12-10-2020 16:00:00 11.06667 C 9 g/m*3 11.07 C 2.53333 km/h
714 12-10-2020 17:00:00 11.79167 C 9.1 g/m*3 11.79 C 1.6 km/h
715 12-10-2020 18:00:00 10.66667 C 8.43 g/m*3 10.67 C 4.54167 km/h
716 12-10-2020 19:00:00 8.3 C 7.55 g/m*3 8.3 C 2 km/h
717 12-10-2020 20:00:00 7.10833 C 7.19 g/m*3 7.11 C 0 km/h
718 12-10-2020 21:00:00 6.55 C 7.05 g/m*3 6.55 C 0.53333 km/h
719 12-10-2020 22:00:00 6.33333 C 7.02 g/m*3 6.33 C 0.13333 km/h
720 12-10-2020 23:00:00 5.94167 C 6.86 g/m*3 5.94 C 0 km/h
721 13-10-2020 00:00:00 5.3 C 6.58 g/m*3 5.3 C 0 km/h
722 13-10-2020 01:00:00 5.075 C 6.52 g/m*3 5.08 C 0 km/h
723 13-10-2020 02:00:00 5.70833 C 6.84 g/m*3 5.71 C 0.13333 km/h
724 13-10-2020 03:00:00 6.2 C 7.06 g/m*3 6.2 C 0.4 km/h
725 13-10-2020 04:00:00 6.15833 C 7.04 g/m*3 6.16 C 0 km/h
Sensor: Nr:Datum:Temp:Abs-Feuchte:Windchill:Wind:
Aussen-T/F 726 13-10-2020 05:00:00 6.25833 C 7.09 g/m*3 6.26 C 0 km/h
727 13-10-2020 06:00:00 6.35 C 7.2 g/m*3 6.35 C 0 km/h
728 13-10-2020 07:00:00 6.325 C 7.19 g/m*3 6.33 C 0 km/h
729 13-10-2020 08:00:00 6.61667 C 7.33 g/m*3 6.62 C 0.13333 km/h
730 13-10-2020 09:00:00 7.05833 C 7.54 g/m*3 7.06 C 0.13333 km/h
731 13-10-2020 10:00:00 7.41667 C 7.65 g/m*3 6.7 C 5.35833 km/h
732 13-10-2020 11:00:00 8.08333 C 7.8 g/m*3 8.08 C 4.275 km/h
733 13-10-2020 12:00:00 9.225 C 8.09 g/m*3 9.23 C 4.00833 km/h
734 13-10-2020 13:00:00 10.16667 C 8.17 g/m*3 10.17 C 4.14167 km/h
735 13-10-2020 14:00:00 10.6 C 8.17 g/m*3 10.2 C 5.86667 km/h
736 13-10-2020 15:00:00 10.91667 C 8.12 g/m*3 10.92 C 3.88333 km/h
737 13-10-2020 16:00:00 10.59167 C 8.12 g/m*3 10.59 C 1.73333 km/h
738 13-10-2020 17:00:00 10.325 C 8.25 g/m*3 10.33 C 0.93333 km/h
739 13-10-2020 18:00:00 8.75 C 7.65 g/m*3 8.75 C 2.8 km/h
740 13-10-2020 19:00:00 7.19167 C 7.18 g/m*3 7.19 C 1.2 km/h
741 13-10-2020 20:00:00 6.40833 C 6.98 g/m*3 6.41 C 0.66667 km/h
742 13-10-2020 21:00:00 5.89167 C 6.8 g/m*3 5.89 C 1.73333 km/h
743 13-10-2020 22:00:00 5.36667 C 6.61 g/m*3 5.37 C 2.66667 km/h
744 13-10-2020 23:00:00 4.98333 C 6.45 g/m*3 4.98 C 0.13333 km/h

Maximal/Minimal-Werte vom 23.02.2003 - 30.09.2020

Sensor Min Max Avg
Temp
(Aussen-T/F)
-16.4 °C
20-12-2009  01:30:01
40.4 °C
25-07-2019  16:20:00
11.32 °C

Die Daten stammen von einer Davis Vantage Pro 2 Wetter-Station und werden unter Linux mit der Software wview2wettercgi und aufbereitet. Alle Angaben erfolgen ohne Gewähr für ihre Vollständigkeit oder Richtigkeit.
Kontakt: Rainer Krienke krienke@uni-koblenz.de . Meine Webseiten an der Uni Koblenz oder privat.
Version: $Revision: 0.78 $